createdAt,value
2023-12-31T00:00:02.534Z,65.4
2023-12-31T00:05:37.912Z,65.6
2023-12-31T00:11:13.530Z,65.8
2023-12-31T00:16:49.861Z,65.5
2023-12-31T00:22:26.404Z,65
2023-12-31T00:28:02.362Z,65.8
2023-12-31T00:33:38.962Z,66.3
2023-12-31T00:39:15.526Z,66.2
2023-12-31T00:44:51.260Z,66.2
2023-12-31T00:50:27.149Z,66.2
2023-12-31T00:56:02.849Z,66.1
2023-12-31T01:01:38.371Z,66.2
2023-12-31T01:07:15.676Z,66.3
2023-12-31T01:12:51.395Z,66.6
2023-12-31T01:18:26.993Z,66.8
2023-12-31T01:24:03.062Z,66.7
2023-12-31T01:29:38.506Z,66.3
2023-12-31T01:35:13.835Z,66.3
2023-12-31T01:40:49.886Z,66.6
2023-12-31T01:46:26.632Z,66.4
2023-12-31T01:52:03.396Z,66.4
2023-12-31T01:57:39.494Z,66.4
2023-12-31T02:03:15.009Z,66.5
2023-12-31T02:08:51.330Z,66.6
2023-12-31T02:14:26.577Z,66.7
2023-12-31T02:20:01.542Z,66.9
2023-12-31T02:25:37.766Z,67.2
2023-12-31T02:31:15.943Z,67.4
2023-12-31T02:36:51.246Z,67.5
2023-12-31T02:42:26.601Z,67.6
2023-12-31T02:48:02.447Z,67.5
2023-12-31T02:53:39.458Z,66.8
2023-12-31T02:59:15.080Z,67.6
2023-12-31T03:04:51.508Z,67.8
2023-12-31T03:10:27.860Z,68.1
2023-12-31T03:16:03.918Z,68.3
2023-12-31T03:21:39.597Z,68.2
2023-12-31T03:27:15.445Z,68.2
2023-12-31T03:32:51.371Z,68.3
2023-12-31T03:38:27.427Z,68.2
2023-12-31T03:44:02.951Z,68.4
2023-12-31T03:49:38.329Z,68.4
2023-12-31T03:55:14.471Z,68.1
2023-12-31T04:00:50.596Z,67.8
2023-12-31T04:06:26.417Z,67.9
2023-12-31T04:12:02.077Z,67.7
2023-12-31T04:17:38.574Z,67.1
2023-12-31T04:23:14.733Z,67.1
2023-12-31T04:28:50.216Z,68.2
2023-12-31T04:34:26.189Z,67.4
2023-12-31T04:40:02.296Z,66.6
2023-12-31T04:45:37.808Z,65.7
2023-12-31T04:51:13.620Z,65.7
2023-12-31T04:56:49.089Z,64.5
2023-12-31T05:02:25.288Z,64.6
2023-12-31T05:08:00.888Z,63.9
2023-12-31T05:13:36.237Z,63.8
2023-12-31T05:19:12.837Z,63.8
2023-12-31T05:24:49.333Z,65.2
2023-12-31T05:30:24.937Z,64.8
2023-12-31T05:36:00.957Z,66.9
2023-12-31T05:41:36.204Z,70
2023-12-31T05:47:12.317Z,70.9
2023-12-31T05:52:48.386Z,72.9
2023-12-31T05:58:24.537Z,73.2
2023-12-31T06:04:00.145Z,74.1
2023-12-31T06:09:35.836Z,74.6
2023-12-31T06:15:11.675Z,75.7
2023-12-31T06:20:47.551Z,75.8
2023-12-31T06:26:24.081Z,76.1
2023-12-31T06:32:00.399Z,76.3
2023-12-31T06:37:36.744Z,76.2
2023-12-31T06:43:13.066Z,75.6
2023-12-31T06:48:49.402Z,75.2
2023-12-31T06:54:25.362Z,75.1
2023-12-31T07:00:01.078Z,75
2023-12-31T07:05:37.796Z,75.1
2023-12-31T07:11:13.848Z,75
2023-12-31T07:16:49.331Z,75.1
2023-12-31T07:22:25.499Z,75
2023-12-31T07:28:01.888Z,75
2023-12-31T07:33:38.598Z,75
2023-12-31T07:39:17.945Z,74.9
2023-12-31T07:44:53.068Z,74.9
2023-12-31T07:50:29.071Z,74.9
2023-12-31T07:56:08.596Z,74.9
2023-12-31T08:01:45.908Z,75.1
2023-12-31T08:07:21.982Z,75.1
2023-12-31T08:12:57.584Z,75
2023-12-31T08:18:33.213Z,75
2023-12-31T08:24:08.763Z,74.9
2023-12-31T08:29:44.337Z,74.9
2023-12-31T08:35:19.779Z,78.1
2023-12-31T08:40:57.461Z,79.2
2023-12-31T08:46:34.403Z,80.9
2023-12-31T08:52:09.879Z,80.5
2023-12-31T08:57:46.186Z,81.8
2023-12-31T09:03:21.422Z,82.1
2023-12-31T09:08:57.137Z,81.7
2023-12-31T09:14:32.669Z,82.1
2023-12-31T09:20:08.441Z,82.6
2023-12-31T09:25:43.934Z,82.4
2023-12-31T09:31:20.337Z,82.2
2023-12-31T09:36:56.081Z,83.6
2023-12-31T09:42:32.075Z,82.4
2023-12-31T09:48:08.697Z,82
2023-12-31T09:53:45.850Z,82.8
2023-12-31T09:59:23.201Z,82.3
2023-12-31T10:05:00.338Z,83.2
2023-12-31T10:10:37.228Z,81.8
2023-12-31T10:16:12.973Z,81.3
2023-12-31T10:21:49.059Z,82.1
2023-12-31T10:27:24.414Z,81.6
2023-12-31T10:33:00.379Z,79.9
2023-12-31T10:38:41.109Z,80.3
2023-12-31T10:44:17.362Z,77.8
2023-12-31T10:49:52.292Z,77.6
2023-12-31T10:55:33.542Z,78.3
2023-12-31T11:01:09.574Z,79.1
2023-12-31T11:06:45.289Z,77.5
2023-12-31T11:12:21.423Z,79.1
2023-12-31T11:17:57.010Z,78.2
2023-12-31T11:23:34.267Z,79.4
2023-12-31T11:29:10.658Z,81.7
2023-12-31T11:34:46.179Z,79.4
2023-12-31T11:40:24.068Z,75.8
2023-12-31T11:45:59.990Z,74.7
2023-12-31T11:51:35.579Z,73.4
2023-12-31T11:57:10.786Z,68.6
2023-12-31T12:02:46.404Z,68.8
2023-12-31T12:08:21.976Z,64.2
2023-12-31T12:13:57.533Z,65.8
2023-12-31T12:19:35.037Z,65.7
2023-12-31T12:25:11.253Z,68
2023-12-31T12:30:46.376Z,66.3
2023-12-31T12:36:23.344Z,65.7
2023-12-31T12:41:58.567Z,67
2023-12-31T12:47:35.117Z,69.2
2023-12-31T12:53:11.575Z,66.9
2023-12-31T12:58:47.411Z,68
2023-12-31T13:04:23.446Z,71
2023-12-31T13:09:59.828Z,70.2
2023-12-31T13:15:35.176Z,70.4
2023-12-31T13:21:10.249Z,69.5
2023-12-31T13:26:45.866Z,67.4
2023-12-31T13:32:21.250Z,68.9
2023-12-31T13:37:56.662Z,67.5
2023-12-31T13:43:33.599Z,69.1
2023-12-31T13:49:09.732Z,63.1
2023-12-31T13:54:46.669Z,60.2
2023-12-31T14:00:22.090Z,61.4
2023-12-31T14:05:57.568Z,58.6
2023-12-31T14:11:33.676Z,55.9
2023-12-31T14:17:09.763Z,49.4
2023-12-31T14:22:46.137Z,57.6
2023-12-31T14:28:22.599Z,66.5
2023-12-31T14:34:11.680Z,66.8
2023-12-31T14:39:49.426Z,65.1
2023-12-31T14:45:24.917Z,62.3
2023-12-31T14:51:01.361Z,64
2023-12-31T14:56:37.654Z,64.6
2023-12-31T15:02:14.073Z,63.3
2023-12-31T15:07:50.383Z,62.5
2023-12-31T15:13:26.885Z,66.8
2023-12-31T15:19:02.968Z,67.8
2023-12-31T15:24:39.634Z,69.8
2023-12-31T15:30:15.359Z,71.7
2023-12-31T15:35:52.415Z,70.1
2023-12-31T15:41:30.075Z,72
2023-12-31T15:47:07.035Z,72.6
2023-12-31T15:52:45.699Z,73.7
2023-12-31T15:58:22.588Z,74.8
2023-12-31T16:03:58.000Z,76.7
2023-12-31T16:09:33.857Z,77.3
2023-12-31T16:15:09.917Z,76.7
2023-12-31T16:20:46.219Z,75.3
2023-12-31T16:26:23.041Z,75.9
2023-12-31T16:31:59.126Z,77.3
2023-12-31T16:37:35.345Z,77.4
2023-12-31T16:43:11.656Z,79.8
2023-12-31T16:48:47.715Z,80.4
2023-12-31T16:54:24.483Z,81.6
2023-12-31T16:59:59.818Z,79.5
2023-12-31T17:05:37.054Z,80.3
2023-12-31T17:11:14.968Z,80
2023-12-31T17:16:50.328Z,76.1
2023-12-31T17:22:27.799Z,74.4
2023-12-31T17:28:04.336Z,73.9
2023-12-31T17:33:41.892Z,73.6
2023-12-31T17:39:18.289Z,73.4
2023-12-31T17:44:53.882Z,73.9
2023-12-31T17:50:29.500Z,73.8
2023-12-31T17:56:05.546Z,73.2
2023-12-31T18:01:42.590Z,73.1
2023-12-31T18:07:18.444Z,73.1
2023-12-31T18:12:53.719Z,73.1
2023-12-31T18:18:29.934Z,73.1
2023-12-31T18:24:06.896Z,73.1
2023-12-31T18:29:42.547Z,73.1
2023-12-31T18:35:17.646Z,72.9
2023-12-31T18:40:54.234Z,73
2023-12-31T18:46:29.987Z,73
2023-12-31T18:52:06.246Z,73.2
2023-12-31T18:57:41.336Z,73.2
2023-12-31T19:03:17.307Z,73.1
2023-12-31T19:08:52.399Z,72.5
2023-12-31T19:14:27.953Z,72
2023-12-31T19:20:03.417Z,72.1
2023-12-31T19:25:39.487Z,72.5
2023-12-31T19:31:15.270Z,72.5
2023-12-31T19:36:50.966Z,72.6
2023-12-31T19:42:26.125Z,72.8
2023-12-31T19:48:01.771Z,72.5
2023-12-31T19:53:38.560Z,71.9
2023-12-31T19:59:15.365Z,71.7
2023-12-31T20:04:51.799Z,71.4
2023-12-31T20:10:28.752Z,71.6
2023-12-31T20:16:04.755Z,71.8
2023-12-31T20:21:40.351Z,71.9
2023-12-31T20:27:16.126Z,71.8
2023-12-31T20:32:51.995Z,71.9
2023-12-31T20:38:27.451Z,71.8
2023-12-31T20:44:03.278Z,72
2023-12-31T20:49:40.089Z,72.1
2023-12-31T20:55:16.609Z,72.2
2023-12-31T21:00:54.301Z,72.2
2023-12-31T21:06:30.534Z,72.2
2023-12-31T21:12:06.703Z,72.1
2023-12-31T21:17:42.509Z,72.1
2023-12-31T21:23:18.983Z,72.2
2023-12-31T21:28:56.553Z,72.2
2023-12-31T21:34:32.452Z,72.2
2023-12-31T21:40:08.697Z,72
2023-12-31T21:45:44.141Z,72
2023-12-31T21:51:19.802Z,72
2023-12-31T21:57:04.625Z,72
2023-12-31T22:02:44.300Z,72.3
2023-12-31T22:08:21.042Z,72.4
2023-12-31T22:13:56.204Z,72.5
2023-12-31T22:19:33.268Z,72.4
2023-12-31T22:25:10.157Z,72
2023-12-31T22:30:46.085Z,71.6
2023-12-31T22:36:27.931Z,71.2
2023-12-31T22:42:04.307Z,70.9
2023-12-31T22:47:41.008Z,70.8
2023-12-31T22:53:17.356Z,71
2023-12-31T22:58:53.996Z,70.7
2023-12-31T23:04:30.187Z,70.6
2023-12-31T23:10:05.943Z,70.5
2023-12-31T23:15:41.315Z,70.7
2023-12-31T23:21:16.871Z,70.4
2023-12-31T23:26:52.683Z,70.2
2023-12-31T23:32:28.725Z,70.7
2023-12-31T23:38:06.198Z,70.6
2023-12-31T23:43:59.379Z,70.6
2023-12-31T23:49:58.168Z,71.4
2023-12-31T23:55:34.252Z,71.7
